Time;durP1;ratioP1;P1;durP2;ratioP2;P2;SDS_P1;SDS_P2;PMS_P1;PMS_P2;Temp;Humidity;BMP_temperature;BMP_pressure;BME280_temperature;BME280_humidity;BME280_pressure;Samples;Min_cycle;Max_cycle;Signal;HPM_P1;HPM_P2
2021/07/30 00:00:18;;;;;;;8.30;5.03;;;;;;;29.61;44.72;100406.73;128430;1082;64246;-86
2021/07/30 00:02:46;;;;;;;9.27;5.50;;;;;;;29.60;44.64;100422.17;128375;1084;64015;-86
2021/07/30 00:05:12;;;;;;;8.80;5.80;;;;;;;29.61;44.37;100415.72;128398;1084;64561;-86
2021/07/30 00:07:40;;;;;;;8.00;5.37;;;;;;;29.60;44.45;100419.45;128383;1084;64176;-86
2021/07/30 00:10:06;;;;;;;8.37;5.13;;;;;;;29.59;44.47;100407.74;128446;1082;64173;-86
2021/07/30 00:12:32;;;;;;;11.00;5.90;;;;;;;29.61;44.63;100412.16;128435;1084;64134;-86
2021/07/30 00:14:59;;;;;;;7.77;5.27;;;;;;;29.61;44.19;100412.16;128360;1082;64127;-86
2021/07/30 00:17:25;;;;;;;8.57;5.67;;;;;;;29.59;44.63;100425.91;128429;1082;64104;-86
2021/07/30 00:19:54;;;;;;;8.90;5.87;;;;;;;29.60;44.52;100419.45;128419;1084;64093;-86
2021/07/30 00:22:20;;;;;;;;;;;;;;;29.58;44.29;100416.92;128437;1082;64124;-86
2021/07/30 00:24:55;;;;;;;8.77;5.43;;;;;;;29.58;44.19;100426.96;128402;1084;64163;-86
2021/07/30 00:27:21;;;;;;;8.93;5.53;;;;;;;29.57;44.51;100423.38;128376;1084;64169;-86
2021/07/30 00:29:52;;;;;;;9.27;5.57;;;;;;;29.57;44.25;100425.25;128394;1084;64154;-85
2021/07/30 00:32:18;;;;;;;8.83;5.83;;;;;;;29.58;44.35;100418.80;128405;1084;63974;-86
2021/07/30 00:34:50;;;;;;;11.10;5.90;;;;;;;29.57;44.40;100412.50;128388;1082;64202;-85
2021/07/30 00:37:37;;;;;;;8.80;5.77;;;;;;;29.57;44.53;100420.66;128397;1084;64571;-85
2021/07/30 00:40:04;;;;;;;11.67;5.73;;;;;;;29.57;44.35;100417.94;128403;1084;64093;-85
2021/07/30 00:42:31;;;;;;;7.93;5.53;;;;;;;29.57;44.19;100417.09;128402;1084;63939;-86
2021/07/30 00:44:59;;;;;;;8.73;5.70;;;;;;;29.56;44.30;100416.27;128404;1084;64092;-86
2021/07/30 00:47:26;;;;;;;9.80;5.70;;;;;;;29.57;44.20;100420.66;128422;1084;64128;-86
2021/07/30 00:49:57;;;;;;;7.87;5.10;;;;;;;29.58;44.16;100421.52;128400;1084;63936;-86
2021/07/30 00:52:26;;;;;;;8.13;5.10;;;;;;;29.57;44.21;100412.50;128392;1084;64141;-86
2021/07/30 00:55:06;;;;;;;9.40;5.53;;;;;;;29.57;44.51;100412.50;128352;1084;64131;-85
2021/07/30 00:57:33;;;;;;;7.63;5.27;;;;;;;29.57;44.55;100417.94;128397;1084;64131;-86
2021/07/30 01:00:25;;;;;;;9.23;5.37;;;;;;;29.56;44.26;100408.11;128385;1084;64104;-86
2021/07/30 01:03:00;;;;;;;10.17;5.63;;;;;;;29.57;44.23;100401.61;128382;1083;64264;-87
2021/07/30 01:05:28;;;;;;;8.00;5.23;;;;;;;29.56;44.08;100413.55;128387;1083;64278;-86
2021/07/30 01:07:55;;;;;;;10.50;5.90;;;;;;;29.57;44.41;100401.61;128450;1081;64133;-86
2021/07/30 01:10:24;;;;;;;8.20;5.60;;;;;;;29.57;44.59;100408.94;128348;1084;64255;-86
2021/07/30 01:12:52;;;;;;;10.13;5.63;;;;;;;29.57;44.09;100419.81;128375;1084;64157;-87
2021/07/30 01:15:18;;;;;;;7.63;5.23;;;;;;;29.57;44.50;100419.81;128373;1084;64131;-85
2021/07/30 01:17:48;;;;;;;9.37;5.40;;;;;;;29.55;44.16;100420.00;128418;1084;64926;-86
2021/07/30 01:20:14;;;;;;;9.90;5.30;;;;;;;29.56;44.01;100418.98;128422;1084;64255;-86
2021/07/30 01:22:53;;;;;;;9.03;6.20;;;;;;;29.57;43.85;100414.38;128441;1084;64211;-86
2021/07/30 01:25:20;;;;;;;8.40;5.60;;;;;;;29.56;43.99;100410.82;128420;1084;64147;-87
2021/07/30 01:27:56;;;;;;;9.17;5.50;;;;;;;29.56;44.01;100408.11;128420;1084;64140;-86
2021/07/30 01:30:23;;;;;;;10.23;5.60;;;;;;;29.56;44.08;100416.27;128477;1084;64067;-86
2021/07/30 01:32:50;;;;;;;8.77;5.60;;;;;;;29.56;43.94;100423.55;128412;1084;64135;-87
2021/07/30 01:35:20;;;;;;;8.27;5.43;;;;;;;29.56;43.85;100421.70;128408;1084;64278;-86
2021/07/30 01:37:46;;;;;;;8.20;5.40;;;;;;;29.55;43.79;100414.56;128426;1083;64090;-87
2021/07/30 01:40:15;;;;;;;8.60;5.40;;;;;;;29.56;44.15;100408.11;128404;1084;64144;-86
2021/07/30 01:42:45;;;;;;;7.23;5.13;;;;;;;29.56;43.96;100409.95;128414;1082;64141;-86
2021/07/30 01:45:11;;;;;;;8.37;5.20;;;;;;;29.55;44.12;100411.84;128392;1082;64275;-86
2021/07/30 01:47:37;;;;;;;6.43;5.00;;;;;;;29.55;44.04;100420.00;128386;1082;64128;-87
2021/07/30 01:50:07;;;;;;;9.27;5.23;;;;;;;29.55;44.27;100424.57;128420;1083;64150;-86
2021/07/30 01:52:34;;;;;;;8.10;5.30;;;;;;;29.55;44.19;100427.28;128420;1084;64164;-85
2021/07/30 01:55:10;;;;;;;9.03;5.40;;;;;;;29.54;43.95;100434.61;128436;1084;64123;-86
2021/07/30 01:57:36;;;;;;;8.03;5.47;;;;;;;29.54;44.12;100431.05;128428;1084;64285;-86
2021/07/30 02:00:15;;;;;;;9.40;5.53;;;;;;;29.55;44.06;100432.73;128425;1084;64231;-85
2021/07/30 02:02:42;;;;;;;9.33;5.73;;;;;;;29.55;44.01;100441.75;128412;1082;64038;-86
2021/07/30 02:05:38;;;;;;;8.77;5.20;;;;;;;29.54;43.88;100441.94;128365;1084;64141;-86
2021/07/30 02:08:05;;;;;;;9.03;5.30;;;;;;;29.54;44.26;100434.61;128384;1086;64320;-86
2021/07/30 02:10:32;;;;;;;8.10;5.23;;;;;;;29.54;43.87;100439.21;128348;1087;64141;-86
2021/07/30 02:15:49;;;;;;;9.20;5.27;;;;;;;29.54;44.21;100441.94;128079;1087;64135;-86
2021/07/30 02:18:18;;;;;;;7.70;5.20;;;;;;;29.54;43.82;100450.09;128000;1087;64272;-85
2021/07/30 02:20:45;;;;;;;9.40;5.50;;;;;;;29.54;44.02;100447.38;128018;1085;64147;-86
2021/07/30 02:23:13;;;;;;;8.43;5.30;;;;;;;29.53;43.70;100457.38;128007;1087;64038;-86
2021/07/30 02:25:40;;;;;;;7.40;5.20;;;;;;;29.54;44.05;100458.25;128337;1087;64102;-86
2021/07/30 02:28:06;;;;;;;8.50;5.60;;;;;;;29.53;43.75;100459.27;128043;1087;64211;-86
2021/07/30 02:30:33;;;;;;;7.53;5.00;;;;;;;29.54;44.10;100475.41;128027;1086;64211;-86
2021/07/30 02:32:59;;;;;;;9.87;5.30;;;;;;;29.53;43.73;100470.98;128030;1087;64591;-86
2021/07/30 02:35:34;;;;;;;8.47;5.20;;;;;;;29.54;44.02;100474.57;127982;1087;64246;-86
2021/07/30 02:38:03;;;;;;;9.57;5.60;;;;;;;29.53;44.21;100481.02;128016;1085;64131;-86
2021/07/30 02:40:38;;;;;;;8.83;5.23;;;;;;;29.53;43.80;100489.18;128032;1087;64154;-86
2021/07/30 02:43:05;;;;;;;6.70;4.77;;;;;;;29.53;43.97;100489.18;128007;1087;63976;-86
2021/07/30 02:45:32;;;;;;;7.23;5.20;;;;;;;29.52;43.86;100496.47;128151;1084;64142;-86
2021/07/30 02:48:01;;;;;;;7.80;5.23;;;;;;;29.53;43.68;100502.78;128391;1084;64346;-86
2021/07/30 02:50:30;;;;;;;9.63;5.50;;;;;;;29.53;44.01;100503.61;128429;1084;64125;-85
2021/07/30 02:52:57;;;;;;;8.10;4.83;;;;;;;29.54;44.00;100496.33;128380;1084;64128;-86
2021/07/30 02:55:26;;;;;;;8.63;5.17;;;;;;;29.53;43.60;100500.05;128378;1084;64163;-86
2021/07/30 02:57:52;;;;;;;9.60;5.23;;;;;;;29.52;43.83;100507.34;128435;1084;64128;-85
2021/07/30 03:00:19;;;;;;;7.58;5.23;;;;;;;29.52;43.88;100501.91;128408;1084;64275;-86
2021/07/30 03:02:45;;;;;;;8.25;4.95;;;;;;;29.53;43.58;100503.61;128378;1083;64619;-85
2021/07/30 03:05:11;;;;;;;7.93;4.60;;;;;;;29.52;44.16;100498.35;128383;1084;64125;-86
2021/07/30 03:07:37;;;;;;;7.15;4.85;;;;;;;29.53;43.93;100502.78;128455;1082;64073;-86
2021/07/30 03:10:04;;;;;;;7.73;5.00;;;;;;;29.52;43.67;100496.47;128483;1084;64255;-86
2021/07/30 03:12:30;;;;;;;8.37;5.47;;;;;;;29.52;43.90;100501.91;128483;1084;64149;-86
2021/07/30 03:14:57;;;;;;;9.10;5.13;;;;;;;29.53;43.90;100500.05;128455;1084;64131;-86
2021/07/30 03:17:26;;;;;;;8.30;5.10;;;;;;;29.53;43.80;100509.05;128398;1084;64252;-85
2021/07/30 03:19:56;;;;;;;8.10;5.03;;;;;;;29.53;43.77;100514.49;128439;1084;64096;-85
2021/07/30 03:22:23;;;;;;;7.50;4.90;;;;;;;29.54;43.50;100521.64;128398;1084;64099;-86
2021/07/30 03:24:52;;;;;;;6.95;5.15;;;;;;;29.54;43.75;100520.80;128392;1084;64096;-86
2021/07/30 03:27:27;;;;;;;6.95;4.90;;;;;;;29.54;43.57;100523.52;128399;1084;64317;-85
2021/07/30 03:29:55;;;;;;;6.90;4.90;;;;;;;29.53;43.46;100524.53;128457;1084;64128;-86
2021/07/30 03:32:30;;;;;;;7.97;4.90;;;;;;;29.54;43.71;100520.80;128438;1084;64131;-86
2021/07/30 03:35:06;;;;;;;8.73;5.10;;;;;;;29.53;44.05;100519.09;128359;1083;64143;-85
2021/07/30 03:37:32;;;;;;;7.90;4.93;;;;;;;29.54;43.93;100515.36;128372;1084;64176;-86
2021/07/30 03:39:59;;;;;;;6.50;4.77;;;;;;;29.54;43.65;100523.52;128409;1084;64167;-86
2021/07/30 03:42:31;;;;;;;7.07;4.90;;;;;;;29.54;43.57;100523.52;128431;1082;64146;-85
2021/07/30 03:45:00;;;;;;;9.27;5.40;;;;;;;29.53;43.87;100527.25;128433;1084;64090;-85
2021/07/30 03:47:27;;;;;;;6.93;4.80;;;;;;;29.53;43.50;100519.09;128410;1084;64157;-86
2021/07/30 03:49:53;;;;;;;8.70;4.80;;;;;;;29.52;43.72;100512.78;128397;1084;64253;-86
2021/07/30 03:52:23;;;;;;;6.83;4.97;;;;;;;29.53;43.76;100527.25;128390;1084;64131;-86
2021/07/30 03:54:50;;;;;;;7.53;4.63;;;;;;;29.53;43.61;100541.69;128388;1084;64137;-85
2021/07/30 03:57:17;;;;;;;8.43;4.63;;;;;;;29.53;43.50;100541.69;128417;1083;64262;-85
2021/07/30 04:00:04;;;;;;;6.13;4.67;;;;;;;29.53;43.88;100540.84;128401;1084;64158;-86
2021/07/30 04:02:40;;;;;;;7.33;4.83;;;;;;;29.53;43.61;100543.56;128397;1084;64211;-85
2021/07/30 04:05:07;;;;;;;7.97;5.20;;;;;;;29.52;43.79;100537.27;128382;1084;64099;-85
2021/07/30 04:07:43;;;;;;;7.37;4.77;;;;;;;29.53;43.57;100522.65;128390;1084;64284;-85
2021/07/30 04:10:09;;;;;;;7.60;5.00;;;;;;;29.53;43.88;100519.09;128367;1084;63935;-86
2021/07/30 04:12:36;;;;;;;6.67;4.47;;;;;;;29.53;43.46;100521.81;128337;1084;64271;-86
2021/07/30 04:15:02;;;;;;;7.40;4.73;;;;;;;29.53;43.72;100517.21;128351;1084;64146;-86
2021/07/30 04:17:36;;;;;;;8.63;5.13;;;;;;;29.54;43.55;100509.92;128346;1084;64228;-86
2021/07/30 04:20:02;;;;;;;6.77;4.67;;;;;;;29.53;43.50;100509.05;128372;1084;64098;-85
2021/07/30 04:22:28;;;;;;;6.70;4.50;;;;;;;29.52;43.56;100501.91;128372;1084;64204;-86
2021/07/30 04:24:55;;;;;;;6.57;4.40;;;;;;;29.53;43.35;100511.77;128389;1084;64281;-86
2021/07/30 04:27:31;;;;;;;6.83;4.30;;;;;;;29.53;43.48;100513.66;128371;1084;64090;-87
2021/07/30 04:29:57;;;;;;;6.63;4.30;;;;;;;29.53;43.52;100525.38;128388;1084;64111;-86
2021/07/30 04:32:25;;;;;;;8.30;4.73;;;;;;;29.53;43.37;100519.09;128342;1084;64294;-86
2021/07/30 04:35:14;;;;;;;8.53;4.93;;;;;;;29.52;43.17;100525.55;128341;1084;64254;-85
2021/07/30 04:37:41;;;;;;;6.53;4.50;;;;;;;29.52;43.51;100537.27;127905;1087;64307;-85
2021/07/30 04:40:08;;;;;;;7.53;4.90;;;;;;;29.51;43.63;100535.59;127925;1086;64141;-86
2021/07/30 04:42:37;;;;;;;6.67;4.47;;;;;;;29.52;43.49;100528.27;127933;1086;64355;-85
2021/07/30 04:45:06;;;;;;;7.83;4.57;;;;;;;29.50;43.32;100523.00;127878;1087;64466;-86
2021/07/30 04:47:33;;;;;;;8.63;4.90;;;;;;;29.50;43.67;100520.28;127918;1087;64191;-85
2021/07/30 04:50:15;;;;;;;8.30;4.57;;;;;;;29.50;43.61;100522.17;127944;1087;64423;-85
2021/07/30 04:52:45;;;;;;;8.27;4.47;;;;;;;29.49;43.38;100520.47;127936;1087;64102;-86
2021/07/30 04:55:11;;;;;;;7.97;4.40;;;;;;;29.49;43.52;100515.86;127911;1087;64214;-85
2021/07/30 04:57:37;;;;;;;7.40;4.33;;;;;;;29.49;43.29;100520.47;127914;1087;64168;-86
2021/07/30 05:00:04;;;;;;;7.20;4.40;;;;;;;29.47;43.29;100515.20;128019;1087;64221;-85
2021/07/30 05:02:31;;;;;;;8.90;4.53;;;;;;;29.48;43.00;100519.59;127873;1086;64269;-85
2021/07/30 05:04:58;;;;;;;8.63;4.40;;;;;;;29.46;43.20;100516.22;127761;1087;64150;-85
2021/07/30 05:07:24;;;;;;;7.87;4.40;;;;;;;29.47;42.89;100520.64;127805;1087;64131;-85
2021/07/30 05:09:50;;;;;;;6.73;4.37;;;;;;;29.46;43.20;100518.94;127835;1087;64145;-85
2021/07/30 05:12:16;;;;;;;6.83;4.40;;;;;;;29.47;43.16;100519.77;127879;1086;64103;-85
2021/07/30 05:14:43;;;;;;;7.20;4.40;;;;;;;29.47;43.11;100519.77;128024;1083;64206;-85
2021/07/30 05:17:20;;;;;;;6.67;4.60;;;;;;;29.46;42.98;100516.22;128356;1082;64134;-87
2021/07/30 05:19:49;;;;;;;8.80;4.80;;;;;;;29.47;42.88;100515.20;128416;1082;64115;-87
2021/07/30 05:22:16;;;;;;;10.27;4.50;;;;;;;29.46;42.70;100521.66;128354;1082;64144;-85
2021/07/30 05:24:42;;;;;;;7.30;4.30;;;;;;;29.46;42.44;100527.09;128249;1083;64343;-83
2021/07/30 05:27:08;;;;;;;6.90;4.60;;;;;;;29.46;42.79;100524.38;128290;1083;64248;-85
2021/07/30 05:29:34;;;;;;;6.67;4.27;;;;;;;29.47;42.68;100526.08;128453;1084;64202;-86
2021/07/30 05:32:03;;;;;;;7.57;4.47;;;;;;;29.48;42.65;100526.91;128377;1082;64294;-85
2021/07/30 05:34:30;;;;;;;9.00;4.20;;;;;;;29.47;42.45;100525.20;128370;1084;63445;-88
2021/07/30 05:36:57;;;;;;;6.33;4.23;;;;;;;29.49;42.65;100528.63;128395;1084;64096;-86
2021/07/30 05:39:47;;;;;;;5.80;4.00;;;;;;;29.50;42.74;100533.88;128358;1084;64104;-85
2021/07/30 05:42:13;;;;;;;9.70;4.27;;;;;;;29.50;42.29;100538.48;128204;1087;64131;-85
2021/07/30 05:44:40;;;;;;;7.83;4.30;;;;;;;29.50;42.47;100542.04;128313;1087;64136;-85
2021/07/30 05:47:07;;;;;;;6.30;4.10;;;;;;;29.51;42.48;100548.31;127982;1087;64289;-86
2021/07/30 05:49:42;;;;;;;7.63;4.07;;;;;;;29.52;42.66;100539.14;128406;1085;64230;-86
2021/07/30 05:52:17;;;;;;;8.87;4.20;;;;;;;29.50;42.45;100539.32;127951;1086;64200;-85
2021/07/30 05:54:44;;;;;;;7.50;4.00;;;;;;;29.52;42.14;100536.42;128304;1087;64131;-86
2021/07/30 05:57:10;;;;;;;6.83;4.10;;;;;;;29.53;42.26;100529.97;127973;1086;63944;-86
2021/07/30 05:59:37;;;;;;;6.60;3.97;;;;;;;29.53;42.43;100524.53;127980;1086;64243;-86
2021/07/30 06:02:03;;;;;;;7.67;3.93;;;;;;;29.54;42.18;100528.95;127984;1087;64217;-86
2021/07/30 06:04:30;;;;;;;6.67;4.17;;;;;;;29.54;41.99;100520.80;127925;1086;64160;-85
2021/07/30 06:06:56;;;;;;;7.20;4.13;;;;;;;29.55;42.20;100517.03;128357;1085;64099;-85
2021/07/30 06:09:22;;;;;;;6.93;4.00;;;;;;;29.56;42.18;100521.45;128017;1087;63003;-85
2021/07/30 06:11:48;;;;;;;6.97;4.00;;;;;;;29.56;42.05;100519.61;127967;1087;64272;-87
2021/07/30 06:14:14;;;;;;;6.47;4.00;;;;;;;29.58;42.13;100527.59;128003;1087;64255;-86
2021/07/30 06:16:47;;;;;;;5.70;3.53;;;;;;;29.58;41.98;100524.87;128004;1087;64144;-86
2021/07/30 06:19:15;;;;;;;7.27;4.10;;;;;;;29.58;41.61;100533.03;128387;1084;64141;-86
2021/07/30 06:21:41;;;;;;;7.77;4.00;;;;;;;29.59;41.84;100526.55;128434;1084;64275;-86
2021/07/30 06:24:08;;;;;;;6.87;4.17;;;;;;;29.59;41.59;100535.57;128452;1082;64170;-86
2021/07/30 06:26:35;;;;;;;9.57;3.90;;;;;;;29.61;41.64;100540.00;128438;1084;63939;-86
2021/07/30 06:29:25;;;;;;;6.63;3.90;;;;;;;29.62;41.85;100541.67;128402;1084;64301;-86
2021/07/30 06:32:00;;;;;;;7.00;3.73;;;;;;;29.62;41.81;100547.98;128359;1087;64142;-86
2021/07/30 06:34:26;;;;;;;8.37;3.80;;;;;;;29.63;41.46;100549.69;127919;1087;64153;-85
2021/07/30 06:36:56;;;;;;;7.23;3.90;;;;;;;29.65;41.46;100554.95;127984;1087;64103;-86
2021/07/30 06:39:31;;;;;;;7.30;3.77;;;;;;;29.64;41.69;100543.20;128020;1087;64073;-86
2021/07/30 06:42:00;;;;;;;9.97;4.33;;;;;;;29.66;41.72;100545.73;128003;1086;64165;-85
2021/07/30 06:44:27;;;;;;;6.73;4.03;;;;;;;29.65;41.45;100555.78;127999;1087;64139;-86
2021/07/30 06:46:53;;;;;;;10.70;3.90;;;;;;;29.67;41.66;100558.33;128052;1086;64100;-86
2021/07/30 06:49:23;;;;;;;6.83;3.40;;;;;;;29.66;41.67;100552.05;128384;1086;64137;-88
2021/07/30 06:51:50;;;;;;;7.17;3.63;;;;;;;29.67;41.48;100548.31;127976;1087;63920;-86
2021/07/30 06:54:17;;;;;;;7.85;4.30;;;;;;;29.68;41.51;100546.43;128013;1087;64123;-86
2021/07/30 06:56:46;;;;;;;7.57;4.13;;;;;;;29.68;41.54;100546.43;128001;1087;64302;-86
2021/07/30 06:59:14;;;;;;;7.27;4.30;;;;;;;29.67;41.04;100540.16;128392;1087;64240;-85
2021/07/30 07:01:43;;;;;;;8.47;4.30;;;;;;;29.68;41.19;100549.15;128033;1087;64134;-85
2021/07/30 07:04:10;;;;;;;7.13;3.83;;;;;;;29.69;41.18;100548.14;128028;1087;63974;-87
2021/07/30 07:06:36;;;;;;;7.63;4.10;;;;;;;29.70;41.16;100547.13;128137;1087;64391;-84
2021/07/30 07:09:02;;;;;;;7.93;4.07;;;;;;;29.70;41.28;100547.13;128382;1084;64131;-84
2021/07/30 07:11:28;;;;;;;7.70;3.73;;;;;;;29.71;41.36;100549.66;128494;1084;64278;-85
2021/07/30 07:13:54;;;;;;;6.43;3.90;;;;;;;29.71;41.58;100548.80;128478;1084;62185;-84
2021/07/30 07:16:21;;;;;;;8.65;4.20;;;;;;;29.72;41.26;100545.06;128451;1084;64154;-85
2021/07/30 07:18:47;;;;;;;7.03;3.90;;;;;;;29.73;41.22;100542.16;128367;1083;64141;-85
2021/07/30 07:21:15;;;;;;;6.40;4.13;;;;;;;29.74;41.21;100548.47;128377;1082;64169;-84
2021/07/30 07:23:42;;;;;;;9.40;4.30;;;;;;;29.73;41.20;100535.88;128367;1082;64259;-84
2021/07/30 07:26:11;;;;;;;6.13;4.27;;;;;;;29.74;40.97;100545.75;128357;1084;61989;-84
2021/07/30 07:28:37;;;;;;;;;;;;;;;29.74;41.24;100541.14;128377;1084;64214;-84
2021/07/30 07:31:03;;;;;;;5.50;3.73;;;;;;;29.74;41.57;100540.31;128376;1084;64772;-84
2021/07/30 07:33:32;;;;;;;6.43;4.03;;;;;;;29.74;41.06;100543.86;128364;1083;64245;-85
2021/07/30 07:35:58;;;;;;;8.60;4.63;;;;;;;29.74;41.14;100546.58;128344;1084;64279;-85
2021/07/30 07:38:25;;;;;;;6.33;4.30;;;;;;;29.73;40.88;100531.28;128380;1084;64136;-85
2021/07/30 07:40:52;;;;;;;8.70;4.70;;;;;;;29.74;41.00;100538.42;128309;1082;64215;-85
2021/07/30 07:43:18;;;;;;;6.50;4.57;;;;;;;29.75;41.24;100540.13;128319;1084;64140;-87
2021/07/30 07:45:45;;;;;;;6.70;4.53;;;;;;;29.76;41.24;100543.69;128333;1084;64147;-84
2021/07/30 07:48:11;;;;;;;8.00;4.70;;;;;;;29.76;40.76;100540.97;128381;1083;64131;-85
2021/07/30 07:50:37;;;;;;;7.43;4.33;;;;;;;29.76;41.24;100539.11;128346;1084;64150;-84
2021/07/30 07:53:19;;;;;;;8.03;4.27;;;;;;;29.78;40.69;100540.78;128287;1084;64131;-85
2021/07/30 07:55:46;;;;;;;7.25;4.60;;;;;;;29.78;40.89;100535.34;128357;1084;64438;-85
2021/07/30 07:58:12;;;;;;;7.30;4.80;;;;;;;29.78;41.06;100541.66;128347;1082;64240;-84
2021/07/30 08:00:40;;;;;;;5.80;4.40;;;;;;;29.78;40.96;100544.38;128375;1083;63975;-84
2021/07/30 08:03:07;;;;;;;10.77;4.43;;;;;;;29.77;40.71;100537.23;128461;1084;64223;-84
2021/07/30 08:05:33;;;;;;;7.50;4.20;;;;;;;29.78;40.73;100541.66;128341;1084;64153;-85
2021/07/30 08:07:59;;;;;;;7.23;4.20;;;;;;;29.78;40.93;100547.09;128398;1084;64173;-83
2021/07/30 08:10:25;;;;;;;8.57;4.57;;;;;;;29.80;40.92;100546.92;128331;1084;64192;-85
2021/07/30 08:12:53;;;;;;;6.63;4.17;;;;;;;29.80;41.07;100536.88;128303;1084;64325;-84
2021/07/30 08:15:19;;;;;;;6.23;3.93;;;;;;;29.81;41.02;100533.13;128336;1084;64151;-85
2021/07/30 08:17:45;;;;;;;5.97;4.13;;;;;;;29.80;40.97;100536.88;128360;1084;64275;-84
2021/07/30 08:20:13;;;;;;;7.10;4.23;;;;;;;29.80;40.69;100525.99;128349;1084;64131;-84
2021/07/30 08:22:41;;;;;;;6.57;4.67;;;;;;;29.82;41.13;100525.81;128311;1084;65083;-84
2021/07/30 08:25:13;;;;;;;6.23;4.40;;;;;;;29.81;41.10;100519.53;128310;1084;64201;-84
2021/07/30 08:27:41;;;;;;;9.03;4.20;;;;;;;29.81;40.72;100516.81;128332;1084;64191;-84
2021/07/30 08:30:07;;;;;;;6.70;4.20;;;;;;;29.82;40.98;100525.81;128331;1082;64157;-84
2021/07/30 08:32:33;;;;;;;6.70;4.20;;;;;;;29.83;40.86;100525.66;128305;1082;64041;-85
2021/07/30 08:35:00;;;;;;;7.07;4.53;;;;;;;29.83;40.55;100522.07;128305;1084;64205;-85
2021/07/30 08:37:27;;;;;;;6.27;4.37;;;;;;;29.83;40.83;100527.52;128321;1084;64176;-84
2021/07/30 08:39:53;;;;;;;8.83;4.70;;;;;;;29.84;41.00;100527.34;128305;1084;64140;-84
2021/07/30 08:42:19;;;;;;;7.63;4.77;;;;;;;29.82;40.84;100523.95;128320;1083;64275;-84
2021/07/30 08:44:47;;;;;;;7.27;4.43;;;;;;;29.84;40.64;100523.78;128352;1084;64147;-85
2021/07/30 08:47:14;;;;;;;6.87;4.63;;;;;;;29.83;41.02;100528.38;128348;1084;62221;-84
2021/07/30 08:49:41;;;;;;;7.77;4.67;;;;;;;29.84;40.83;100523.78;128324;1084;64147;-84
2021/07/30 08:52:10;;;;;;;6.37;4.67;;;;;;;29.84;40.87;100511.01;128324;1084;64253;-84
2021/07/30 08:54:36;;;;;;;5.80;4.30;;;;;;;29.85;40.69;100515.44;128332;1084;64217;-84
2021/07/30 08:57:08;;;;;;;9.20;4.80;;;;;;;29.86;41.13;100508.14;128312;1084;64090;-85
2021/07/30 08:59:38;;;;;;;6.70;4.50;;;;;;;29.87;41.03;100504.41;128345;1082;64141;-84
2021/07/30 09:02:09;;;;;;;9.73;4.50;;;;;;;29.87;41.27;100510.72;128352;1084;64285;-84
2021/07/30 09:04:35;;;;;;;8.40;4.85;;;;;;;29.87;41.26;100509.84;128383;1084;64140;-83
2021/07/30 09:07:02;;;;;;;7.10;4.70;;;;;;;29.88;41.39;100511.55;128325;1084;64019;-83
2021/07/30 09:09:32;;;;;;;7.27;4.80;;;;;;;29.87;40.87;100507.99;128284;1083;64125;-84
2021/07/30 09:11:59;;;;;;;6.80;4.87;;;;;;;29.89;41.41;100505.09;128233;1082;64284;-84
2021/07/30 09:14:43;;;;;;;7.53;4.97;;;;;;;29.90;41.34;100501.36;128324;1084;62646;-84
2021/07/30 09:17:09;;;;;;;9.47;4.87;;;;;;;29.89;41.45;100503.20;128358;1084;64259;-85
2021/07/30 09:20:03;;;;;;;7.47;5.17;;;;;;;29.89;41.39;100510.53;128286;1082;64272;-84
2021/07/30 09:22:48;;;;;;;7.83;4.60;;;;;;;29.89;41.14;100497.77;128394;1082;64118;-84
2021/07/30 09:25:30;;;;;;;7.93;4.90;;;;;;;29.89;41.19;100495.05;128492;1083;64134;-84
2021/07/30 09:28:07;;;;;;;7.20;4.43;;;;;;;29.89;41.34;100491.48;128361;1084;64058;-85
2021/07/30 09:30:34;;;;;;;8.07;4.97;;;;;;;29.90;40.94;100493.19;128256;1082;62176;-84
2021/07/30 09:33:00;;;;;;;8.03;5.00;;;;;;;29.90;40.87;100495.91;128250;1084;64131;-84
2021/07/30 09:35:27;;;;;;;8.37;4.57;;;;;;;29.90;41.25;100493.19;128344;1082;64105;-84
2021/07/30 09:38:18;;;;;;;9.30;4.73;;;;;;;29.90;40.89;100485.03;128331;1082;64375;-85
2021/07/30 09:40:45;;;;;;;8.00;5.10;;;;;;;29.91;40.89;100486.70;128288;1083;64051;-84
2021/07/30 09:43:24;;;;;;;6.90;4.30;;;;;;;29.90;41.13;100483.14;128351;1084;64141;-85
2021/07/30 09:45:51;;;;;;;6.43;4.70;;;;;;;29.90;41.06;100479.59;128372;1083;62276;-84
2021/07/30 09:48:19;;;;;;;8.00;4.80;;;;;;;29.90;41.35;100480.42;128283;1084;64183;-84
2021/07/30 09:50:47;;;;;;;6.87;4.67;;;;;;;29.90;41.24;100472.26;128408;1083;64243;-84
2021/07/30 09:53:14;;;;;;;6.87;4.20;;;;;;;29.91;41.33;100478.54;128291;1084;64121;-83
2021/07/30 09:55:40;;;;;;;8.07;4.80;;;;;;;29.90;41.30;100469.54;128343;1084;64147;-83
2021/07/30 09:58:06;;;;;;;7.13;4.53;;;;;;;29.91;41.20;100484.84;128301;1084;64168;-83
2021/07/30 10:00:33;;;;;;;8.63;4.93;;;;;;;29.90;41.30;100477.70;128248;1082;64144;-83
2021/07/30 10:03:02;;;;;;;6.33;5.10;;;;;;;29.91;40.96;100464.94;128376;1081;64128;-83
2021/07/30 10:05:54;;;;;;;7.63;5.03;;;;;;;29.90;41.01;100455.94;128364;1084;64224;-85
2021/07/30 10:08:21;;;;;;;6.97;4.93;;;;;;;29.90;41.28;100461.38;128362;1086;64076;-87
2021/07/30 10:10:47;;;;;;;7.87;4.90;;;;;;;29.91;41.28;100456.77;127952;1086;64142;-86
2021/07/30 10:13:19;;;;;;;7.07;4.90;;;;;;;29.90;41.31;100450.49;128279;1085;64135;-86
2021/07/30 10:15:46;;;;;;;8.00;5.47;;;;;;;29.90;41.28;100445.05;127999;1087;64157;-85
2021/07/30 10:18:13;;;;;;;8.00;4.93;;;;;;;29.90;40.94;100444.22;127977;1085;64061;-85
2021/07/30 10:20:39;;;;;;;6.90;5.47;;;;;;;29.89;41.32;100439.79;127993;1086;64093;-85
2021/07/30 10:23:07;;;;;;;7.67;5.03;;;;;;;29.89;40.94;100437.91;127898;1085;64143;-84
2021/07/30 10:25:35;;;;;;;8.03;5.05;;;;;;;29.88;41.49;100430.76;127996;1087;64176;-86
2021/07/30 10:28:07;;;;;;;7.47;5.10;;;;;;;29.88;41.37;100424.48;128034;1085;64211;-86
2021/07/30 10:31:02;;;;;;;6.87;5.07;;;;;;;29.87;41.51;100420.92;128008;1087;64142;-85
2021/07/30 10:33:51;;;;;;;9.17;5.23;;;;;;;29.87;41.20;100426.37;127985;1087;64156;-86
2021/07/30 10:36:37;;;;;;;7.63;4.97;;;;;;;29.87;41.10;100422.78;128022;1086;64285;-86
2021/07/30 10:39:08;;;;;;;7.90;5.20;;;;;;;29.86;41.41;100419.22;128005;1087;64253;-86
2021/07/30 10:42:12;;;;;;;7.70;5.10;;;;;;;29.85;41.47;100412.05;128005;1087;64141;-86
2021/07/30 10:45:19;;;;;;;7.17;5.23;;;;;;;29.85;41.46;100409.33;128342;1085;64164;-86
2021/07/30 10:47:55;;;;;;;8.33;5.20;;;;;;;29.85;41.45;100409.33;128374;1085;64237;-85
2021/07/30 10:51:04;;;;;;;7.23;5.37;;;;;;;29.84;41.61;100404.90;128385;1087;64156;-86
2021/07/30 10:53:37;;;;;;;7.20;4.63;;;;;;;29.84;41.28;100398.63;127998;1086;64086;-86
2021/07/30 10:56:32;;;;;;;8.40;5.30;;;;;;;29.84;41.72;100388.58;128384;1087;64221;-85
2021/07/30 10:59:07;;;;;;;7.03;4.97;;;;;;;29.84;41.61;100396.73;128394;1086;64304;-85
2021/07/30 11:01:39;;;;;;;6.73;4.77;;;;;;;29.84;41.53;100382.30;128009;1087;64402;-86
2021/07/30 11:04:06;;;;;;;7.70;5.43;;;;;;;29.84;41.76;100393.19;128350;1086;64160;-85
2021/07/30 11:06:41;;;;;;;7.37;4.80;;;;;;;29.84;41.71;100385.86;128008;1086;64288;-86
2021/07/30 11:09:18;;;;;;;7.47;5.10;;;;;;;29.84;41.38;100385.02;128420;1086;64271;-86
2021/07/30 11:11:55;;;;;;;8.80;5.17;;;;;;;29.85;41.60;100381.28;128069;1086;64280;-85
2021/07/30 11:14:25;;;;;;;6.60;4.73;;;;;;;29.84;41.77;100379.58;128470;1087;63980;-86
2021/07/30 11:16:57;;;;;;;5.70;4.50;;;;;;;29.84;41.41;100379.58;128457;1087;64233;-86
2021/07/30 11:19:35;;;;;;;7.17;4.90;;;;;;;29.84;41.66;100374.97;128489;1084;64138;-85
2021/07/30 11:22:03;;;;;;;7.47;4.90;;;;;;;29.85;41.53;100371.23;128491;1084;64092;-87
2021/07/30 11:24:30;;;;;;;7.27;4.90;;;;;;;29.84;41.96;100364.09;128418;1083;64260;-85
2021/07/30 11:26:56;;;;;;;6.83;4.97;;;;;;;29.86;41.12;100380.27;128379;1084;62842;-85
2021/07/30 11:29:28;;;;;;;6.53;4.87;;;;;;;29.85;41.95;100373.12;128370;1084;64288;-86
2021/07/30 11:32:05;;;;;;;7.40;5.07;;;;;;;29.85;41.80;100375.84;128419;1084;64093;-86